Lodz, Poland

9:10 PM CET on December 06, 2016 (GMT +0100)
Lublinek | | Change Station

Elev 604 ft 51.72 °N, 19.40 °E | Updated 10 minutes ago

Overcast
Overcast
34 °F
Feels Like 30 °F
N
5
Wind Variable Wind from West

Today
High -- | Low -- °F
--% Chance of Precip.
Yesterday
High -- | Low -- °F
Precip. -- in
Pressure 30.45 in
Visibility 1.6 miles
Clouds Overcast 300 ft
Windchill 30 °F
Dew Point 32 °F
Humidity 93%
Rainfall 0.00 in
Snow Depth Not available.
7:33 AM 3:33 PM
Waxing Crescent, 44% visible
METAR EPLL 062000Z 27004KT 2600 BR OVC003 01/00 Q1031
Pressure 30.45 in
Visibility 1.6 miles
Clouds Overcast 300 ft
Windchill 30 °F
Dew Point 32 °F
Humidity 93%
Rainfall 0.00 in
Snow Depth Not available.
7:33 AM 3:33 PM
Waxing Crescent, 44% visible
METAR EPLL 062000Z 27004KT 2600 BR OVC003 01/00 Q1031

10-Day Weather Forecast

×

Almanac

Astronomy

Dec. 06, 2016 Rise Set
Actual Time
Civil Twilight
Nautical Twilight
Astronomical Twilight
Moon
Length of Visible Light
Length of Day
Tomorrow will be .
, % of the Moon is Illuminated

Today's Extremes

Country Highs Country Lows

Community

WunderPhotos

Upload Photos

1,956,020 photos uploaded!

WunderBlog® & News

Nearby

Air Quality

  Air Quality AQ Index Pollutant
Not available.

Snow Depth

Station Depth Elevation

Earthquake Activity

City Distance Mag. Time & Date
Minimum magnitude displayed is 2.5.

Coastal Water Temperatures

Place Temperature

Stations

Nearby Weather Stations

Station Location Temp. Windchill Dew Point Humidity Wind Precip. Elev Updated Type